Hannah, ND (58239)

10:12 PM CST on January 27, 2015 (GMT -0600)
Dresden, ND | Change Station
CLOSE
Current Station
Personal Weather Station
Location: Langdon, ND
Elevation: 1588 ft
Nearby Weather Stations

Elev 1588 ft 48.83 °N, 98.48 °W | Updated 3 seconds ago

Fog
Fog
30.7 °F
Feels Like 26 °F
N
4.9
Wind Variable Wind from SSE
Gusts 10.0 mph

Today
High -- | Low -- °F
--% Chance of Precip.
Yesterday
High -- | Low -- °F
Precip. -- in
8:11 AM 5:24 PM
First Quarter, 60% visible
Pressure 29.82 in
Visibility 0.2 miles
Clouds Overcast 100 ft
Windchill 26 °F
Dew Point 30 °F
Humidity 98%
Rainfall 0.00 in
Snow Depth Not available.
UV 0 out of 12
Pollen .10 out of 12
Air Quality Not available.
Flu Activity Not available.
METAR KD55 280355Z AUTO 14012KT 1/4SM FZFG OVC001 00/00 A2982 RMK AO2

More Conditions Fewer Conditions

Pressure 29.82 in
Visibility 0.2 miles
Clouds Overcast 100 ft
Windchill 26 °F
Dew Point 30 °F
Humidity 98%
Rainfall 0.00 in
Snow Depth Not available.
UV 0 out of 12
Pollen .10 out of 12
Air Quality Not available.
Flu Activity Not available.
METAR KD55 280355Z AUTO 14012KT 1/4SM FZFG OVC001 00/00 A2982 RMK AO2

More Conditions Fewer Conditions

Nowcast | as of 8:26 PM CST on January 27, 2015

Mild January temperatures and moisture from melting snow will cause pockets of locally dense fog to form over the northern Devils Lake basin toward the international border. The visibility could change rapidly over short distances...lowering at times to near one quarter mile in and around Rock Lake...Calio...Esmond...Langdon and Backoo. These conditions could very well persist through the overnight.

×

10-Day Weather Forecast

Almanac

Astronomy

Jan. 27, 2015 Rise Set
Actual Time
Civil Twilight
Nautical Twilight
Astronomical Twilight
Moon
Length of Visible Light
Length of Day
Tomorrow will be .
, % of the Moon is Illuminated

Today's Extremes

State Highs State Lows

Community

WunderPhotos

Upload Photos

1,791,086 photos uploaded!

WunderBlogs® & News

Nearby

Air Quality

  Air Quality AQ Index Pollutant
Not available.

Snow Depth

Station Depth Elevation

Earthquake Activity

City Distance Mag. Time & Date
Minimum magnitude displayed is 2.5.

Coastal Water Temperatures

Place Temperature

Nearby Weather Stations